Time;durP1;ratioP1;P1;durP2;ratioP2;P2;SDS_P1;SDS_P2;PMS_P1;PMS_P2;Temp;Humidity;BMP_temperature;BMP_pressure;BME280_temperature;BME280_humidity;BME280_pressure;Samples;Min_cycle;Max_cycle;Signal;HPM_P1;HPM_P2
2021/10/11 00:01:05;;;;;;;;;;;;;;;6.70;65.90;101153.20;1618809;87;21172;-75
2021/10/11 00:03:31;;;;;;;;;;;;;;;6.65;65.76;101151.39;1621189;87;20281;-75
2021/10/11 00:05:58;;;;;;;;;;;;;;;6.64;65.93;101149.21;1621272;87;20227;-75
2021/10/11 00:08:27;;;;;;;;;;;;;;;6.63;65.75;101148.01;1625190;87;20215;-73
2021/10/11 00:10:59;;;;;;;;;;;;;;;6.64;65.72;101147.07;1621199;87;20195;-74
2021/10/11 00:13:25;;;;;;;;;;;;;;;6.62;65.75;101148.48;1621957;87;20354;-74
2021/10/11 00:15:53;;;;;;;;;;;;;;;6.63;65.69;101134.88;1592335;88;20254;-75
2021/10/11 00:18:19;;;;;;;;;;;;;;;6.56;66.04;101138.89;1621978;87;20112;-74
2021/10/11 00:20:47;;;;;;;;;;;;;;;6.55;65.69;101135.41;1621473;87;20147;-73
2021/10/11 00:23:15;;;;;;;;;;;;;;;6.52;66.05;101132.17;1622970;87;20184;-77
2021/10/11 00:25:40;;;;;;;;;;;;;;;6.51;65.65;101133.10;1622138;87;20180;-73
2021/10/11 00:28:06;;;;;;;;;;;;;;;6.47;65.97;101130.69;1620472;87;20155;-74
2021/10/11 00:30:32;;;;;;;;;;;;;;;6.45;66.11;101128.66;1621910;87;20270;-72
2021/10/11 00:32:57;;;;;;;;;;;;;;;6.44;66.12;101133.52;1619778;87;20811;-78
2021/10/11 00:35:25;;;;;;;;;;;;;;;6.42;66.34;101131.48;1592880;88;20179;-73
2021/10/11 00:37:50;;;;;;;;;;;;;;;6.37;67.11;101129.66;1611945;87;21498;-74
2021/10/11 00:40:18;;;;;;;;;;;;;;;6.38;66.79;101130.48;1610898;87;20519;-74
2021/10/11 00:42:44;;;;;;;;;;;;;;;6.35;66.89;101128.08;1612077;87;20154;-72
2021/10/11 00:45:09;;;;;;;;;;;;;;;6.36;66.93;101126.66;1610352;87;20174;-74
2021/10/11 00:47:35;;;;;;;;;;;;;;;6.35;66.97;101119.72;1614445;87;21249;-74
2021/10/11 00:50:01;;;;;;;;;;;;;;;6.35;67.23;101109.71;1612842;87;21204;-75
2021/10/11 00:52:27;;;;;;;;;;;;;;;6.36;67.05;101110.92;1613480;87;20212;-76
2021/10/11 00:54:54;;;;;;;;;;;;;;;6.26;68.48;101112.48;1614127;87;21034;-73
2021/10/11 00:57:20;;;;;;;;;;;;;;;6.00;69.82;101105.09;1585932;87;20164;-74
2021/10/11 00:59:45;;;;;;;;;;;;;;;5.85;70.22;101093.80;1611187;87;20163;-73
2021/10/11 01:02:11;;;;;;;;;;;;;;;5.78;71.00;101095.14;1612780;87;21092;-73
2021/10/11 01:04:36;;;;;;;;;;;;;;;5.70;71.33;101088.64;1612929;87;20348;-74
2021/10/11 01:07:02;;;;;;;;;;;;;;;5.67;71.56;101083.60;1612834;87;20161;-77
2021/10/11 01:09:27;;;;;;;;;;;;;;;5.68;72.15;101085.27;1612988;87;20134;-73
2021/10/11 01:11:55;;;;;;;;;;;;;;;5.70;72.15;101085.16;1614663;88;20192;-74
2021/10/11 01:14:21;;;;;;;;;;;;;;;5.67;72.08;101075.74;1615043;87;21699;-73
2021/10/11 01:16:49;;;;;;;;;;;;;;;5.68;72.55;101077.40;1612351;87;20151;-74
2021/10/11 01:19:14;;;;;;;;;;;;;;;5.79;71.91;101068.83;1615880;87;20523;-74
2021/10/11 01:21:40;;;;;;;;;;;;;;;5.85;71.51;101069.73;1609698;88;20119;-74
2021/10/11 01:24:05;;;;;;;;;;;;;;;5.93;70.90;101063.52;1611445;87;21191;-73
2021/10/11 01:26:43;;;;;;;;;;;;;;;6.01;70.67;101061.72;1616681;87;21169;-74
2021/10/11 01:29:10;;;;;;;;;;;;;;;6.10;70.26;101056.30;1610807;88;20123;-73
2021/10/11 01:31:39;;;;;;;;;;;;;;;6.18;70.06;101053.16;1612977;87;20214;-74
2021/10/11 01:34:06;;;;;;;;;;;;;;;6.19;70.48;101050.91;1615251;87;20136;-74
2021/10/11 01:36:32;;;;;;;;;;;;;;;6.24;70.10;101050.11;1620604;87;20131;-74
2021/10/11 01:38:59;;;;;;;;;;;;;;;6.27;70.15;101051.22;1619808;87;22730;-74
2021/10/11 01:41:27;;;;;;;;;;;;;;;6.25;70.27;101046.56;1621696;87;20484;-74
2021/10/11 01:43:54;;;;;;;;;;;;;;;6.27;70.35;101048.59;1623475;87;20174;-74
2021/10/11 01:46:19;;;;;;;;;;;;;;;6.34;69.84;101043.30;1616530;87;20762;-76
2021/10/11 01:48:47;;;;;;;;;;;;;;;6.37;69.77;101040.46;1624392;87;20354;-74
2021/10/11 01:51:12;;;;;;;;;;;;;;;6.43;69.34;101033.48;1620805;86;21273;-74
2021/10/11 01:53:39;;;;;;;;;;;;;;;6.46;69.04;101030.64;1623759;87;20273;-74
2021/10/11 01:56:06;;;;;;;;;;;;;;;6.51;68.76;101026.83;1623618;87;20621;-74
2021/10/11 01:58:33;;;;;;;;;;;;;;;6.53;68.58;101024.47;1621467;87;20494;-74
2021/10/11 02:00:58;;;;;;;;;;;;;;;6.55;68.52;101024.37;1621885;87;20184;-75
2021/10/11 02:03:24;;;;;;;;;;;;;;;6.58;68.42;101026.77;1620147;87;22714;-74
2021/10/11 02:05:50;;;;;;;;;;;;;;;6.58;68.36;101024.98;1624658;87;20165;-75
2021/10/11 02:08:15;;;;;;;;;;;;;;;6.61;68.19;101026.56;1621809;87;20535;-74
2021/10/11 02:10:42;;;;;;;;;;;;;;;6.60;68.21;101022.24;1622334;87;20731;-74
2021/10/11 02:13:13;;;;;;;;;;;;;;;6.61;67.97;101021.31;1621172;87;20171;-74
2021/10/11 02:15:39;;;;;;;;;;;;;;;6.64;67.68;101014.05;1618385;87;20614;-75
2021/10/11 02:18:04;;;;;;;;;;;;;;;6.68;67.51;101011.20;1621872;87;20135;-74
2021/10/11 02:20:35;;;;;;;;;;;;;;;6.69;67.47;101005.84;1619735;87;20206;-73
2021/10/11 02:23:01;;;;;;;;;;;;;;;6.70;67.43;101004.91;1589704;87;20217;-75
2021/10/11 02:25:27;;;;;;;;;;;;;;;6.74;67.40;101010.31;1620752;87;20453;-74
2021/10/11 02:27:52;;;;;;;;;;;;;;;6.72;67.64;100997.75;1624205;87;21119;-74
2021/10/11 02:30:18;;;;;;;;;;;;;;;6.76;67.58;100993.97;1624333;87;20211;-74
2021/10/11 02:32:43;;;;;;;;;;;;;;;6.76;67.46;100984.78;1619541;87;20511;-74
2021/10/11 02:35:13;;;;;;;;;;;;;;;6.75;67.18;100984.89;1591796;88;20736;-76
2021/10/11 02:37:38;;;;;;;;;;;;;;;6.74;67.28;100980.13;1594303;87;20195;-74
2021/10/11 02:40:06;;;;;;;;;;;;;;;6.74;67.31;100976.64;1619869;87;21965;-74
2021/10/11 02:42:32;;;;;;;;;;;;;;;6.71;67.24;100965.91;1593570;87;20178;-75
2021/10/11 02:44:59;;;;;;;;;;;;;;;6.75;67.20;100960.78;1621908;87;20187;-77
2021/10/11 02:47:25;;;;;;;;;;;;;;;6.74;66.90;100953.88;1621312;87;20223;-74
2021/10/11 02:49:54;;;;;;;;;;;;;;;6.78;66.56;100959.73;1623113;87;20204;-74
2021/10/11 02:52:20;;;;;;;;;;;;;;;6.74;66.56;100959.13;1621658;87;20644;-74
2021/10/11 02:54:46;;;;;;;;;;;;;;;6.77;66.33;100951.00;1621931;87;20498;-75
2021/10/11 02:57:13;;;;;;;;;;;;;;;6.72;66.24;100953.13;1620142;87;21214;-74
2021/10/11 02:59:38;;;;;;;;;;;;;;;6.73;66.13;100952.19;1621917;87;20977;-74
2021/10/11 03:02:04;;;;;;;;;;;;;;;6.71;66.06;100947.53;1621484;87;20494;-77
2021/10/11 03:04:29;;;;;;;;;;;;;;;6.72;65.97;100942.63;1620747;87;22064;-74
2021/10/11 03:06:57;;;;;;;;;;;;;;;6.71;66.03;100943.59;1620231;87;20230;-77
2021/10/11 03:09:22;;;;;;;;;;;;;;;6.70;66.05;100941.91;1622089;87;20228;-77
2021/10/11 03:11:49;;;;;;;;;;;;;;;6.68;66.28;100941.20;1621731;86;20756;-74
2021/10/11 03:14:17;;;;;;;;;;;;;;;6.66;66.24;100943.08;1621208;87;21006;-74
2021/10/11 03:16:42;;;;;;;;;;;;;;;6.66;66.36;100940.45;1618320;87;21212;-75
2021/10/11 03:19:10;;;;;;;;;;;;;;;6.63;66.54;100944.16;1624263;87;20197;-78
2021/10/11 03:21:37;;;;;;;;;;;;;;;6.62;66.85;100937.70;1621239;87;20160;-75
2021/10/11 03:24:02;;;;;;;;;;;;;;;6.61;66.63;100943.41;1619941;87;20169;-78
2021/10/11 03:26:30;;;;;;;;;;;;;;;6.60;66.61;100940.89;1622943;87;20638;-75
2021/10/11 03:28:55;;;;;;;;;;;;;;;6.60;66.44;100933.02;1620944;87;20153;-74
2021/10/11 03:31:21;;;;;;;;;;;;;;;6.57;66.28;100938.48;1591870;87;20848;-74
2021/10/11 03:33:47;;;;;;;;;;;;;;;6.51;66.23;100933.68;1590260;87;20217;-76
2021/10/11 03:36:12;;;;;;;;;;;;;;;6.39;66.43;100931.00;1611906;87;20440;-75
2021/10/11 03:38:38;;;;;;;;;;;;;;;6.28;67.00;100925.69;1611493;87;20146;-75
2021/10/11 03:41:05;;;;;;;;;;;;;;;6.16;67.33;100923.94;1613401;87;21155;-77
2021/10/11 03:43:31;;;;;;;;;;;;;;;6.08;67.67;100921.37;1589469;87;20221;-74
2021/10/11 03:45:56;;;;;;;;;;;;;;;5.99;67.87;100914.63;1610330;87;20300;-74
2021/10/11 03:48:24;;;;;;;;;;;;;;;5.93;68.25;100913.23;1613720;87;20167;-74
2021/10/11 03:50:52;;;;;;;;;;;;;;;5.90;68.27;100901.66;1607752;87;20139;-74
2021/10/11 03:53:17;;;;;;;;;;;;;;;5.98;68.25;100902.01;1615009;88;21079;-75
2021/10/11 03:55:46;;;;;;;;;;;;;;;6.07;68.00;100896.56;1611674;87;20166;-74
2021/10/11 03:58:11;;;;;;;;;;;;;;;6.13;67.61;100888.27;1613402;87;20183;-74
2021/10/11 04:00:37;;;;;;;;;;;;;;;6.14;67.64;100883.84;1612789;87;20857;-75
2021/10/11 04:03:06;;;;;;;;;;;;;;;6.15;67.76;100885.53;1615213;87;20460;-75
2021/10/11 04:05:33;;;;;;;;;;;;;;;6.13;67.90;100887.44;1613094;87;21164;-74
2021/10/11 04:08:05;;;;;;;;;;;;;;;6.15;67.93;100888.16;1616466;87;20180;-74
2021/10/11 04:10:33;;;;;;;;;;;;;;;6.10;68.28;100891.11;1612291;87;20224;-75
2021/10/11 04:13:02;;;;;;;;;;;;;;;5.99;68.77;100886.62;1611806;87;20173;-74
2021/10/11 04:15:25;;;;;;;;;;;;;;;6.03;68.77;100885.47;1610669;87;20124;-75
2021/10/11 04:17:51;;;;;;;;;;;;;;;6.04;68.59;100880.56;1611257;87;21188;-75
2021/10/11 04:20:16;;;;;;;;;;;;;;;6.07;68.31;100882.97;1587699;88;21698;-73
2021/10/11 04:22:42;;;;;;;;;;;;;;;6.08;68.19;100878.11;1591309;87;20147;-75
2021/10/11 04:25:08;;;;;;;;;;;;;;;6.09;67.96;100869.75;1613572;87;20169;-74
2021/10/11 04:27:39;;;;;;;;;;;;;;;6.05;68.35;100869.14;1614818;87;20160;-74
2021/10/11 04:30:07;;;;;;;;;;;;;;;6.04;68.43;100871.39;1609930;87;20107;-77
2021/10/11 04:32:34;;;;;;;;;;;;;;;6.04;68.27;100864.84;1612990;88;20149;-74
2021/10/11 04:35:02;;;;;;;;;;;;;;;6.03;68.34;100864.49;1613155;87;20186;-77
2021/10/11 04:37:27;;;;;;;;;;;;;;;5.97;68.79;100864.09;1613568;87;20956;-76
2021/10/11 04:39:53;;;;;;;;;;;;;;;5.91;68.81;100865.33;1615949;87;20429;-73
2021/10/11 04:42:20;;;;;;;;;;;;;;;5.92;68.87;100866.53;1592591;88;22019;-73
2021/10/11 04:44:47;;;;;;;;;;;;;;;5.93;68.53;100866.05;1613860;87;20180;-76
2021/10/11 04:47:13;;;;;;;;;;;;;;;5.93;68.35;100863.42;1611343;87;20187;-73
2021/10/11 04:49:38;;;;;;;;;;;;;;;5.91;68.26;100862.70;1614633;88;20466;-73
2021/10/11 04:52:04;;;;;;;;;;;;;;;5.91;68.01;100862.22;1612595;87;20178;-75
2021/10/11 04:54:31;;;;;;;;;;;;;;;5.90;68.01;100859.70;1611268;87;22073;-73
2021/10/11 04:56:59;;;;;;;;;;;;;;;5.88;67.92;100861.61;1612943;88;20210;-75
2021/10/11 04:59:25;;;;;;;;;;;;;;;5.89;67.82;100852.81;1614394;87;20188;-75
2021/10/11 05:01:51;;;;;;;;;;;;;;;5.85;67.90;100851.34;1592406;87;20162;-74
2021/10/11 05:04:18;;;;;;;;;;;;;;;5.85;67.75;100844.80;1613130;87;20221;-74
2021/10/11 05:06:45;;;;;;;;;;;;;;;5.86;67.75;100838.61;1615087;87;20109;-75
2021/10/11 05:09:11;;;;;;;;;;;;;;;5.83;67.69;100848.00;1613896;87;20102;-78
2021/10/11 05:11:38;;;;;;;;;;;;;;;5.82;67.73;100845.00;1610645;87;20154;-76
2021/10/11 05:14:04;;;;;;;;;;;;;;;5.81;67.56;100843.32;1608562;87;20976;-75
2021/10/11 05:16:32;;;;;;;;;;;;;;;5.81;67.30;100851.19;1612132;87;20181;-75
2021/10/11 05:19:00;;;;;;;;;;;;;;;5.77;67.27;100853.67;1616198;87;20145;-75
2021/10/11 05:21:25;;;;;;;;;;;;;;;5.69;67.28;100855.03;1612467;87;21030;-75
2021/10/11 05:23:51;;;;;;;;;;;;;;;5.72;67.21;100860.06;1613866;87;20142;-76
2021/10/11 05:26:19;;;;;;;;;;;;;;;5.70;67.07;100863.28;1595203;87;20819;-74
2021/10/11 05:28:46;;;;;;;;;;;;;;;5.73;66.90;100859.13;1612211;87;20199;-76
2021/10/11 05:31:12;;;;;;;;;;;;;;;5.73;67.17;100862.20;1610546;87;21956;-73
2021/10/11 05:33:37;;;;;;;;;;;;;;;5.71;67.08;100859.69;1615459;87;20149;-75
2021/10/11 05:36:03;;;;;;;;;;;;;;;5.74;66.90;100855.55;1617381;87;20160;-77
2021/10/11 05:38:29;;;;;;;;;;;;;;;5.75;67.00;100853.30;1626260;86;20188;-74
2021/10/11 05:40:56;;;;;;;;;;;;;;;5.75;66.99;100840.20;1621993;87;20458;-72
2021/10/11 05:43:23;;;;;;;;;;;;;;;5.78;67.02;100847.47;1623606;87;21221;-74
2021/10/11 05:45:51;;;;;;;;;;;;;;;5.79;67.06;100843.43;1619454;87;20238;-73
2021/10/11 05:48:16;;;;;;;;;;;;;;;5.80;67.14;100836.42;1620020;87;20183;-78
2021/10/11 05:50:44;;;;;;;;;;;;;;;5.84;67.15;100836.55;1619558;87;20151;-73
2021/10/11 05:53:12;;;;;;;;;;;;;;;5.84;67.05;100836.10;1621237;87;20184;-72
2021/10/11 05:55:38;;;;;;;;;;;;;;;5.84;67.27;100831.31;1619289;87;20149;-74
2021/10/11 05:58:03;;;;;;;;;;;;;;;5.88;67.24;100824.92;1622307;87;20338;-72
2021/10/11 06:00:29;;;;;;;;;;;;;;;5.90;67.13;100828.25;1589353;88;20276;-73
2021/10/11 06:02:57;;;;;;;;;;;;;;;5.89;67.07;100823.98;1618429;87;20263;-73
2021/10/11 06:05:24;;;;;;;;;;;;;;;5.89;67.10;100827.91;1621073;87;20160;-75
2021/10/11 06:07:49;;;;;;;;;;;;;;;5.95;67.05;100830.09;1622689;87;21262;-72
2021/10/11 06:10:15;;;;;;;;;;;;;;;5.99;66.83;100840.74;1620995;87;20169;-74
2021/10/11 06:12:42;;;;;;;;;;;;;;;6.01;66.74;100832.31;1621207;87;20160;-74
2021/10/11 06:15:10;;;;;;;;;;;;;;;6.03;66.79;100829.55;1622762;87;20231;-73
2021/10/11 06:17:38;;;;;;;;;;;;;;;6.06;66.73;100827.56;1619384;88;20165;-74
2021/10/11 06:20:04;;;;;;;;;;;;;;;6.06;66.90;100836.75;1620439;87;21124;-75
2021/10/11 06:22:34;;;;;;;;;;;;;;;6.11;66.96;100828.06;1620893;87;20215;-75
2021/10/11 06:24:59;;;;;;;;;;;;;;;6.19;66.54;100826.69;1622710;87;20152;-80
2021/10/11 06:27:29;;;;;;;;;;;;;;;6.23;66.70;100821.56;1622813;87;20165;-73
2021/10/11 06:29:55;;;;;;;;;;;;;;;6.29;66.59;100823.73;1619191;87;20183;-74
2021/10/11 06:32:20;;;;;;;;;;;;;;;6.30;66.54;100821.48;1618734;88;21888;-74
2021/10/11 06:34:46;;;;;;;;;;;;;;;6.34;66.29;100825.58;1619903;87;20148;-75
2021/10/11 06:37:12;;;;;;;;;;;;;;;6.40;66.38;100825.12;1613153;88;20127;-73
2021/10/11 06:39:37;;;;;;;;;;;;;;;6.50;66.16;100828.38;1614106;87;20145;-73
2021/10/11 06:42:03;;;;;;;;;;;;;;;6.54;66.43;100825.42;1612300;87;20153;-73
2021/10/11 06:44:30;;;;;;;;;;;;;;;6.58;65.82;100831.27;1614658;87;21273;-73
2021/10/11 06:46:56;;;;;;;;;;;;;;;6.62;65.25;100828.80;1612291;87;20203;-74
2021/10/11 06:49:21;;;;;;;;;;;;;;;6.66;65.20;100830.22;1615771;87;20193;-72
2021/10/11 06:51:49;;;;;;;;;;;;;;;6.64;64.19;100829.50;1613333;87;20121;-77
2021/10/11 06:54:16;;;;;;;;;;;;;;;6.74;64.04;100823.09;1613241;87;20516;-73
2021/10/11 06:56:48;;;;;;;;;;;;;;;6.75;63.56;100828.22;1612653;87;20150;-75
2021/10/11 06:59:16;;;;;;;;;;;;;;;6.78;63.67;100824.55;1613608;87;20348;-77
2021/10/11 07:01:45;;;;;;;;;;;;;;;6.81;63.54;100823.83;1613347;88;20170;-73
2021/10/11 07:04:13;;;;;;;;;;;;;;;6.90;63.65;100822.31;1612894;88;20921;-72
2021/10/11 07:06:41;;;;;;;;;;;;;;;7.02;63.47;100819.21;1612648;88;20118;-72
2021/10/11 07:09:07;;;;;;;;;;;;;;;7.17;63.24;100819.84;1612714;87;20135;-72
2021/10/11 07:11:33;;;;;;;;;;;;;;;7.19;62.42;100821.41;1613017;87;20144;-73
2021/10/11 07:14:00;;;;;;;;;;;;;;;7.34;62.60;100822.48;1612859;87;20172;-73
2021/10/11 07:16:27;;;;;;;;;;;;;;;7.41;61.76;100825.47;1610200;87;20205;-73
2021/10/11 07:18:54;;;;;;;;;;;;;;;7.43;61.62;100821.78;1613068;87;20506;-73
2021/10/11 07:21:22;;;;;;;;;;;;;;;7.41;61.31;100818.90;1614413;87;21274;-74
2021/10/11 07:23:47;;;;;;;;;;;;;;;7.39;60.71;100816.39;1611204;87;20232;-73
2021/10/11 07:26:13;;;;;;;;;;;;;;;7.50;61.07;100809.84;1610114;87;20149;-76
2021/10/11 07:28:42;;;;;;;;;;;;;;;7.54;60.57;100803.37;1612275;87;20802;-77
2021/10/11 07:31:09;;;;;;;;;;;;;;;7.67;60.83;100799.29;1610944;88;20495;-74
2021/10/11 07:33:34;;;;;;;;;;;;;;;7.72;60.55;100790.58;1589450;88;21008;-73
2021/10/11 07:36:03;;;;;;;;;;;;;;;7.81;60.11;100782.91;1611644;87;20416;-76
2021/10/11 07:38:30;;;;;;;;;;;;;;;7.80;60.16;100782.09;1611330;87;20144;-75
2021/10/11 07:40:57;;;;;;;;;;;;;;;7.89;59.61;100778.72;1611007;88;20186;-74
2021/10/11 07:43:24;;;;;;;;;;;;;;;7.97;59.28;100771.53;1590343;87;20223;-76
2021/10/11 07:45:50;;;;;;;;;;;;;;;8.08;59.71;100775.92;1612130;88;21109;-76
2021/10/11 07:48:16;;;;;;;;;;;;;;;8.19;61.15;100775.05;1612364;88;20205;-75
2021/10/11 07:50:42;;;;;;;;;;;;;;;8.28;60.85;100772.95;1610584;87;20311;-73
2021/10/11 07:53:08;;;;;;;;;;;;;;;8.34;61.19;100765.87;1611418;88;20191;-74
2021/10/11 07:55:33;;;;;;;;;;;;;;;8.43;61.02;100768.23;1609423;87;20507;-74
2021/10/11 07:57:59;;;;;;;;;;;;;;;8.47;60.46;100760.48;1613296;87;21905;-74
2021/10/11 08:00:27;;;;;;;;;;;;;;;8.60;60.22;100758.97;1590897;88;20264;-74
2021/10/11 08:02:56;;;;;;;;;;;;;;;8.69;59.98;100749.48;1615107;88;20205;-75
2021/10/11 08:05:23;;;;;;;;;;;;;;;8.74;59.58;100752.05;1617207;87;20207;-73
2021/10/11 08:07:49;;;;;;;;;;;;;;;8.83;59.49;100750.45;1610767;88;20222;-74
2021/10/11 08:10:15;;;;;;;;;;;;;;;8.81;59.14;100749.76;1613741;87;21976;-75
2021/10/11 08:12:42;;;;;;;;;;;;;;;8.92;59.08;100748.36;1590451;88;20237;-80
2021/10/11 08:15:08;;;;;;;;;;;;;;;8.94;58.47;100742.47;1613384;87;20205;-75
2021/10/11 08:17:33;;;;;;;;;;;;;;;9.03;58.61;100749.25;1614794;87;20929;-74
2021/10/11 08:19:59;;;;;;;;;;;;;;;9.09;57.98;100736.84;1608544;87;20295;-75
2021/10/11 08:22:26;;;;;;;;;;;;;;;9.17;58.41;100737.03;1611146;88;21178;-78
2021/10/11 08:24:52;;;;;;;;;;;;;;;9.25;58.51;100739.83;1590806;88;20179;-80
2021/10/11 08:27:20;;;;;;;;;;;;;;;9.31;58.47;100737.98;1611010;87;20143;-72
2021/10/11 08:29:51;;;;;;;;;;;;;;;9.40;58.03;100731.55;1611449;87;20217;-72
2021/10/11 08:32:17;;;;;;;;;;;;;;;9.48;57.61;100725.14;1613170;87;20211;-77
2021/10/11 08:34:43;;;;;;;;;;;;;;;9.47;56.21;100726.10;1612269;87;21903;-73
2021/10/11 08:37:08;;;;;;;;;;;;;;;9.59;56.59;100722.88;1618595;87;20135;-73
2021/10/11 08:39:36;;;;;;;;;;;;;;;9.65;56.36;100713.11;1622130;86;20143;-73
2021/10/11 08:42:04;;;;;;;;;;;;;;;9.74;56.58;100716.71;1621842;86;21788;-75
2021/10/11 08:44:30;;;;;;;;;;;;;;;9.84;56.92;100707.02;1619012;86;20110;-74
2021/10/11 08:46:56;;;;;;;;;;;;;;;9.94;56.20;100707.02;1621427;86;21138;-73
2021/10/11 08:49:23;;;;;;;;;;;;;;;10.01;56.19;100698.41;1621398;87;21289;-74
2021/10/11 08:51:51;;;;;;;;;;;;;;;10.07;55.26;100698.34;1620463;87;20322;-75
2021/10/11 08:54:16;;;;;;;;;;;;;;;10.23;55.29;100694.64;1621068;87;20208;-74
2021/10/11 08:56:42;;;;;;;;;;;;;;;10.28;54.50;100691.58;1621798;87;20140;-74
2021/10/11 08:59:08;;;;;;;;;;;;;;;10.34;54.57;100688.91;1620521;87;21120;-73
2021/10/11 09:01:33;;;;;;;;;;;;;;;10.49;55.39;100684.03;1621045;87;20463;-73
2021/10/11 09:04:16;;;;;;;;;;;;;;;10.60;54.43;100685.17;1588842;88;20480;-73
2021/10/11 09:06:49;;;;;;;;;;;;;;;10.68;53.85;100682.64;1589995;88;21024;-74
2021/10/11 09:09:18;;;;;;;;;;;;;;;10.78;54.32;100678.63;1615613;87;20326;-73
2021/10/11 09:11:44;;;;;;;;;;;;;;;10.93;53.98;100672.41;1623221;87;21182;-74
2021/10/11 09:14:12;;;;;;;;;;;;;;;11.03;53.50;100673.67;1592303;88;20173;-73
2021/10/11 09:16:41;;;;;;;;;;;;;;;11.07;53.88;100669.27;1568803;88;20119;-74
2021/10/11 09:19:11;;;;;;;;;;;;;;;11.16;53.67;100674.67;1593768;87;20833;-74
2021/10/11 09:21:36;;;;;;;;;;;;;;;11.17;53.04;100663.95;1623465;87;20178;-74
2021/10/11 09:24:06;;;;;;;;;;;;;;;11.21;53.62;100662.66;1590798;88;21158;-73
2021/10/11 09:26:43;;;;;;;;;;;;;;;11.23;53.32;100652.79;1620390;87;20211;-75
2021/10/11 09:29:10;;;;;;;;;;;;;;;11.29;52.88;100653.99;1622173;87;20142;-73
2021/10/11 09:31:40;;;;;;;;;;;;;;;11.31;52.45;100652.88;1619878;86;20114;-72
2021/10/11 09:34:05;;;;;;;;;;;;;;;11.39;52.87;100649.48;1619669;87;20335;-77
2021/10/11 09:36:31;;;;;;;;;;;;;;;11.45;52.63;100648.04;1619954;86;21168;-75
2021/10/11 09:38:59;;;;;;;;;;;;;;;11.53;52.31;100639.35;1613906;87;20195;-73
2021/10/11 09:41:27;;;;;;;;;;;;;;;11.61;51.46;100636.81;1618350;87;20211;-73
2021/10/11 09:43:53;;;;;;;;;;;;;;;11.68;51.41;100628.13;1612897;87;20181;-71
2021/10/11 09:46:23;;;;;;;;;;;;;;;11.78;50.88;100630.67;1614744;87;20165;-73
2021/10/11 09:48:54;;;;;;;;;;;;;;;11.86;50.98;100624.63;1611718;87;20196;-74
2021/10/11 09:51:24;;;;;;;;;;;;;;;11.86;50.07;100628.09;1611413;87;20211;-75
2021/10/11 09:53:52;;;;;;;;;;;;;;;11.96;49.94;100624.56;1611350;87;20156;-75
2021/10/11 09:56:18;;;;;;;;;;;;;;;11.98;49.15;100618.64;1610429;87;20638;-75
2021/10/11 09:58:46;;;;;;;;;;;;;;;11.98;48.12;100617.31;1609428;87;20169;-74
2021/10/11 10:01:11;;;;;;;;;;;;;;;12.01;48.75;100623.13;1613956;87;21159;-79
2021/10/11 10:03:37;;;;;;;;;;;;;;;12.06;48.32;100622.66;1612516;87;20615;-79
2021/10/11 10:06:05;;;;;;;;;;;;;;;12.12;48.65;100620.72;1611039;87;20264;-76
2021/10/11 10:08:33;;;;;;;;;;;;;;;12.11;47.69;100616.91;1614355;87;20150;-73
2021/10/11 10:11:01;;;;;;;;;;;;;;;12.18;46.68;100614.81;1612460;87;20154;-73
2021/10/11 10:13:27;;;;;;;;;;;;;;;12.19;44.83;100604.53;1609722;87;20148;-73
2021/10/11 10:15:56;;;;;;;;;;;;;;;12.18;44.42;100605.55;1590976;87;20200;-73
2021/10/11 10:18:22;;;;;;;;;;;;;;;12.17;45.24;100597.25;1611087;87;20205;-73
2021/10/11 10:20:55;;;;;;;;;;;;;;;12.19;45.37;100600.56;1611315;87;20115;-75
2021/10/11 10:23:27;;;;;;;;;;;;;;;12.27;45.35;100597.64;1612929;87;20139;-73
2021/10/11 10:25:58;;;;;;;;;;;;;;;12.40;46.17;100590.12;1592985;88;23702;-73
2021/10/11 10:28:24;;;;;;;;;;;;;;;12.40;45.58;100584.82;1609363;87;20607;-78
2021/10/11 10:31:00;;;;;;;;;;;;;;;12.34;45.17;100585.45;1585272;88;33142;-77
2021/10/11 10:33:35;;;;;;;;;;;;;;;12.38;45.53;100590.75;1613090;87;20137;-75
2021/10/11 10:36:00;;;;;;;;;;;;;;;12.50;45.07;100589.49;1588423;88;20165;-74
2021/10/11 10:38:27;;;;;;;;;;;;;;;12.68;45.89;100599.20;1612333;87;21154;-74
2021/10/11 10:40:54;;;;;;;;;;;;;;;12.89;45.13;100586.84;1611551;87;20239;-74
2021/10/11 10:43:25;;;;;;;;;;;;;;;12.99;43.81;100589.35;1591561;88;20156;-74
2021/10/11 10:45:53;;;;;;;;;;;;;;;13.10;43.13;100581.94;1610274;87;20545;-75
2021/10/11 10:48:23;;;;;;;;;;;;;;;13.21;41.76;100578.66;1613559;87;20171;-76
2021/10/11 10:50:51;;;;;;;;;;;;;;;13.38;42.29;100578.22;1611087;88;21295;-76
2021/10/11 10:53:18;;;;;;;;;;;;;;;13.43;41.02;100573.25;1583034;88;20144;-74
2021/10/11 10:55:44;;;;;;;;;;;;;;;13.55;40.56;100574.58;1608038;88;20192;-77
2021/10/11 10:58:13;;;;;;;;;;;;;;;13.55;40.73;100569.75;1610217;87;20200;-73
2021/10/11 11:00:40;;;;;;;;;;;;;;;13.50;38.97;100566.30;1611931;87;20111;-74
2021/10/11 11:03:17;;;;;;;;;;;;;;;13.67;39.71;100566.28;1614394;88;21236;-73
2021/10/11 11:05:42;;;;;;;;;;;;;;;13.72;38.44;100555.51;1613837;88;20372;-74
2021/10/11 11:08:09;;;;;;;;;;;;;;;13.75;38.03;100551.20;1588161;88;20142;-72
2021/10/11 11:10:42;;;;;;;;;;;;;;;13.85;38.53;100548.36;1611144;87;20135;-72
2021/10/11 11:13:14;;;;;;;;;;;;;;;13.83;37.20;100547.70;1614379;87;20213;-75
2021/10/11 11:15:40;;;;;;;;;;;;;;;13.83;35.93;100542.39;1612989;88;20106;-73
2021/10/11 11:18:17;;;;;;;;;;;;;;;13.79;35.39;100545.05;1611203;88;20518;-74
2021/10/11 11:20:48;;;;;;;;;;;;;;;13.91;35.54;100536.25;1608692;88;20211;-73
2021/10/11 11:23:19;;;;;;;;;;;;;;;13.98;35.32;100536.73;1589668;88;20180;-74
2021/10/11 11:25:45;;;;;;;;;;;;;;;14.03;35.83;100534.05;1610488;87;20196;-75
2021/10/11 11:28:18;;;;;;;;;;;;;;;13.98;35.27;100537.21;1611736;87;21967;-74
2021/10/11 11:30:45;;;;;;;;;;;;;;;14.03;36.06;100532.24;1614117;87;20500;-72
2021/10/11 11:33:12;;;;;;;;;;;;;;;14.10;36.46;100529.73;1612922;87;20145;-73
2021/10/11 11:35:48;;;;;;;;;;;;;;;14.14;36.99;100528.41;1614395;87;20817;-76
2021/10/11 11:38:16;;;;;;;;;;;;;;;14.11;36.35;100526.08;1588667;87;20154;-75
2021/10/11 11:40:45;;;;;;;;;;;;;;;14.18;36.31;100521.25;1601712;87;20513;-73
2021/10/11 11:43:13;;;;;;;;;;;;;;;14.22;36.10;100524.39;1608072;87;20251;-73
2021/10/11 11:45:45;;;;;;;;;;;;;;;14.26;35.83;100516.89;1612061;87;20183;-77
2021/10/11 11:48:15;;;;;;;;;;;;;;;14.46;36.47;100508.02;1605469;88;20213;-74
2021/10/11 11:50:42;;;;;;;;;;;;;;;14.45;35.45;100511.67;1606088;87;20184;-76
2021/10/11 11:53:13;;;;;;;;;;;;;;;14.52;34.81;100507.33;1613021;87;21101;-72
2021/10/11 11:55:39;;;;;;;;;;;;;;;14.54;34.93;100510.63;1611930;88;20212;-74
2021/10/11 11:58:13;;;;;;;;;;;;;;;14.59;34.20;100503.47;1606773;88;20231;-72
2021/10/11 12:00:36;;;;;;;;;;;;;;;14.75;34.07;100498.63;1607510;87;20205;-73
2021/10/11 12:03:03;;;;;;;;;;;;;;;14.92;33.79;100493.52;1608701;87;20228;-76
2021/10/11 12:05:29;;;;;;;;;;;;;;;15.07;34.13;100489.58;1611439;87;21181;-74
2021/10/11 12:07:55;;;;;;;;;;;;;;;15.14;33.91;100487.06;1606503;87;20214;-74
2021/10/11 12:10:23;;;;;;;;;;;;;;;15.11;33.39;100479.44;1604077;88;20270;-74
2021/10/11 12:13:03;;;;;;;;;;;;;;;15.32;34.01;100468.95;1611845;87;20269;-75
2021/10/11 12:15:30;;;;;;;;;;;;;;;15.53;33.65;100470.91;1588807;88;20180;-75
2021/10/11 12:18:09;;;;;;;;;;;;;;;15.70;33.01;100468.11;1609351;87;21968;-73
2021/10/11 12:20:41;;;;;;;;;;;;;;;15.72;32.20;100466.92;1609700;87;20128;-74
2021/10/11 12:23:08;;;;;;;;;;;;;;;15.75;32.99;100463.05;1609332;87;20502;-76
2021/10/11 12:25:33;;;;;;;;;;;;;;;15.82;33.36;100457.84;1608773;88;20212;-76
2021/10/11 12:28:13;;;;;;;;;;;;;;;15.77;34.21;100459.24;1609952;88;20170;-73
2021/10/11 12:30:41;;;;;;;;;;;;;;;15.72;34.50;100453.61;1609519;88;21155;-72
2021/10/11 12:33:17;;;;;;;;;;;;;;;15.79;34.44;100446.56;1605437;88;20224;-72
2021/10/11 12:35:43;;;;;;;;;;;;;;;15.50;33.90;100446.50;1609573;88;20097;-73
2021/10/11 12:38:11;;;;;;;;;;;;;;;15.39;34.64;100440.59;1607829;88;20737;-73
2021/10/11 12:40:38;;;;;;;;;;;;;;;15.48;35.26;100441.88;1563262;88;20331;-77
2021/10/11 12:43:18;;;;;;;;;;;;;;;15.46;34.48;100442.54;1583693;89;21156;-74